Weather observations for the past three days for
Vance Brand Airport
Imperial (Metric)
Date Time (mdt) Wind (mph) Vis. (mi.) Weather Sky Cond. Temperature (ºF) Relative Humidity Wind Chill (°F) Heat Index (°F) Pressure Precipitation (in)
Air Dwpt 6 hour altimeter (in) sea level (mb) 1 hr 3 hr 6 hr
Max. Min.
03 19:35 W 6 7.00 Fair CLR 66.4 23.4 19% 29.86 0.0
03 19:15 W 6 G 10 7.00 Fair CLR 68 23.5 19% 29.87 0.0
03 18:55 W 12 G 22 7.00 Fair CLR 68.4 23.5 18% 29.87 0.0
03 18:35 W 10 10.00 Fair CLR 69.1 23 17% 29.88 0.0
03 18:15 W 10 G 21 10.00 Fair CLR 70.2 22.8 17% 29.88 0.0
03 17:55 W 7 10.00 Partly Cloudy SCT120 70 21.2 75.9 68.7 16% 29.89 0.0
03 17:35 NW 26 G 44 10.00 Fair and Windy CLR 68.9 22.1 17% 29.9 0.0
03 17:15 NW 24 G 32 10.00 Partly Cloudy and Breezy SCT120 70 20.5 15% 29.89 0.0
03 16:55 N 6 G 24 10.00 Partly Cloudy SCT120 70.5 17.6 13% 29.88 0.0
03 16:35 W 23 G 30 7.00 Partly Cloudy and Breezy SCT110 69.6 20.7 15% 29.89 0.0
03 16:15 W 12 G 17 7.00 Fair CLR 70.9 18.5 14% 29.89 0.0
03 15:55 NW 10 G 31 10.00 Fair CLR 70.7 18.5 14% 29.91 0.0
03 15:35 W 13 G 20 7.00 Fair CLR 71.8 18.3 13% 29.9 0.0
03 15:15 NW 15 10.00 Fair CLR 73.6 17.2 12% 29.9 0.0
03 14:55 NW 3 10.00 Fair CLR 73.6 13.8 10% 29.91 0.0
03 14:35 W 6 10.00 Fair CLR 73.9 13.3 10% 29.92 0.0
03 14:15 N 8 10.00 Fair CLR 74.1 14.5 10% 29.93 0.0
03 13:55 N 10 G 16 10.00 Fair CLR 74.5 14.9 10% 29.93 0.0
03 13:35 NW 13 G 17 10.00 Fair CLR 74.8 15.6 10% 29.94 0.0
03 13:15 W 8 7.00 Fair CLR 74.3 16.9 11% 29.95 0.0
03 12:55 SW 7 10.00 Fair CLR 73 17.1 12% 29.96 0.0
03 12:35 W 5 7.00 Fair CLR 73 16.9 12% 29.97 0.0
03 12:15 SW 10 7.00 Fair CLR 71.8 16.3 12% 29.99 0.0
03 11:55 W 9 10.00 Fair CLR 71.1 15.6 71.1 46.2 12% 30 0.0
03 11:35 W 12 G 18 7.00 Fair CLR 70 14.9 12% 30.01 0.0
03 11:15 W 16 G 21 7.00 Fair CLR 69.6 14.7 12% 30.01 0.0
03 10:55 W 20 G 24 7.00 Fair CLR 69.8 14.2 12% 30.01 0.0
03 10:35 W 17 7.00 Fair CLR 70.2 13.8 11% 30.01 0.0
03 10:15 W 13 G 20 7.00 Fair CLR 70 15.1 12% 30.01 0.0
03 09:55 W 15 G 22 7.00 Fair CLR 70.2 14.2 11% 30.01 0.0
03 09:35 W 14 G 21 7.00 Fair CLR 69.1 14.9 12% 30.01 0.0
03 09:15 W 17 G 26 7.00 Fair CLR 68.4 15.6 13% 30.02 0.0
03 08:55 W 18 G 24 7.00 Fair CLR 68.2 16.9 14% 30.02 0.0
03 08:35 W 21 G 26 10.00 Fair and Breezy CLR 67.3 17.6 15% 30.02 0.0
03 08:15 W 15 G 22 10.00 Fair CLR 66.6 17.8 15% 30.02 0.0
03 07:55 W 12 G 20 10.00 Fair CLR 65.7 18.5 16% 30.02 0.0
03 07:35 W 7 10.00 Fair CLR 61.7 20.8 21% 30.03 0.0
03 07:15 SW 6 10.00 Fair CLR 62.1 19 19% 30.02 0.0
03 06:55 W 5 7.00 Fair CLR 57.4 20.8 24% 30.03 0.0
03 06:35 Calm 10.00 Fair CLR 50.5 23.5 35% 30.03 0.0
03 06:15 Calm 10.00 Fair CLR 47.5 25.3 42% 30.02 0.0
03 05:55 NE 3 10.00 Fair CLR 45.7 24.4 49.8 38.7 43% 30.02 0.0
03 05:35 S 3 10.00 Fair CLR 43.5 22.1 43% 30.01 0.0
03 05:15 Calm 10.00 Fair CLR 43.3 22.1 43% 30.02 0.0
03 04:55 Calm 10.00 Fair CLR 41 21.6 46% 30.02 0.0
03 04:35 W 3 7.00 Fair CLR 43.3 21.6 42% 30.03 0.0
03 04:15 Calm 10.00 Fair CLR 40.1 20.5 45% 30.03 0.0
03 03:55 Calm 10.00 Fair CLR 40.6 20.5 44% 30.03 0.0
03 03:35 Calm 10.00 Fair CLR 39.6 18.9 43% 30.03 0.0
03 03:15 Calm 10.00 Fair CLR 42.1 18.3 38% 30.03 0.0
03 02:55 Calm 10.00 Fair CLR 39.9 17.6 40% 30.03 0.0
03 02:35 SW 3 10.00 Fair CLR 42.1 18.3 38% 30.03 0.0
03 02:15 SW 5 10.00 Fair CLR 44.1 18 35% 42 30.04 0.0
03 01:55 SW 3 10.00 Fair CLR 44.8 17.6 34% 30.05 0.0
03 01:35 S 6 10.00 Fair CLR 43.3 17.6 35% 40 30.05 0.0
03 01:15 SW 5 10.00 Fair CLR 43.7 16.5 33% 42 30.05 0.0
03 00:55 W 5 10.00 Fair CLR 44.1 12.7 28% 42 30.06 0.0
03 00:35 SW 3 7.00 Fair CLR 47.5 13.6 26% 30.06 0.0
03 00:15 W 5 7.00 Fair CLR 49.5 13.6 24% 48 30.06 0.0
02 23:55 SW 3 7.00 Fair CLR 49.1 11.5 71.6 47.3 22% 0 0.0
02 23:35 W 9 7.00 Fair CLR 50 12.9 22% 47 30.06 0.0
02 23:15 W 8 7.00 Fair CLR 50.5 11.5 21% 30.05 0.0
02 22:55 W 6 7.00 Fair CLR 49.8 11.8 22% 48 30.06 0.0
02 22:35 W 6 7.00 Fair CLR 48.2 10 21% 46 30.07 0.0
02 22:15 W 5 7.00 Fair CLR 50.9 8.2 18% 30.07 0.0
02 21:55 W 6 7.00 Fair CLR 51.4 8.4 17% 30.06 0.0
02 21:35 W 6 7.00 Fair CLR 50.9 12.6 21% 30.06 0.0
02 21:15 NW 3 7.00 Fair CLR 48.4 12 23% 30.06 0.0
02 20:55 Calm 7.00 Fair CLR 50.4 14.7 24% 30.06 0.0
02 20:35 W 5 7.00 Fair CLR 54.9 11.3 17% 30.06 0.0
02 20:15 Calm 10.00 Fair CLR 59.4 9.5 14% 30.05 0.0
02 19:55 NE 3 7.00 Fair CLR 64.2 9.1 11% 30.04 0.0
02 19:35 NE 5 10.00 Fair CLR 64.9 7 10% 30.04 0.0
02 19:15 E 7 10.00 Fair CLR 65.3 6.1 9% 30.04 0.0
02 18:55 E 7 7.00 Fair CLR 69.6 6.4 8% 30.03 0.0
02 18:35 E 8 7.00 Fair CLR 70.7 5.2 7% 30.04 0.0
02 18:15 E 3 7.00 Fair CLR 71.2 4.6 7% 30.04 0.0
02 17:55 E 8 10.00 Fair CLR 72 5.4 72.7 65.1 7% 30.04 0.0
02 17:35 E 8 10.00 Fair CLR 72.1 5.7 7% 30.04 0.0
02 17:15 SE 7 10.00 Fair CLR 72.5 7 8% 30.04 0.0
02 16:55 E 7 10.00 Fair CLR 71.8 6.6 8% 30.05 0.0
02 16:35 SE 6 7.00 Fair CLR 71.8 7.9 8% 30.05 0.0
02 16:15 SE 7 10.00 Fair CLR 72.7 9.3 8% 30.06 0.0
02 15:55 E 10 10.00 Fair CLR 72 9 9% 30.07 0.0
02 15:35 E 9 G 16 7.00 Fair CLR 70.9 9.3 9% 30.08 0.0
02 15:15 E 13 G 20 7.00 Fair CLR 71.8 10.9 9% 30.09 0.0
02 14:55 E 8 10.00 Fair CLR 70.7 9.1 9% 30.1 0.0
02 14:35 NE 9 7.00 Fair CLR 70.5 10.8 10% 30.11 0.0
02 14:15 E 8 7.00 Fair CLR 70.2 11.5 10% 30.11 0.0
02 13:55 E 3 7.00 Fair CLR 68.9 11.5 11% 30.12 0.0
02 13:35 Calm 10.00 Fair CLR 68 11.3 11% 30.13 0.0
02 13:15 Calm 7.00 Fair CLR 68 12 11% 30.13 0.0
02 12:55 S 5 7.00 Fair CLR 67.3 12.9 12% 30.14 0.0
02 12:35 E 7 10.00 Fair CLR 67.1 13.1 12% 30.15 0.0
02 12:15 S 6 7.00 Fair CLR 65.5 12.7 13% 30.16 0.0
02 11:55 E 8 7.00 Fair CLR 64.9 12.9 13% 30.17 0.0
02 11:35 SE 7 10.00 Fair CLR 64.6 12.4 13% 30.18 0.0
02 11:15 NE 7 7.00 Fair CLR 64.2 12.2 13% 30.18 0.0
02 10:55 NE 6 7.00 Fair CLR 63 10.8 13% 30.19 0.0
02 10:35 E 5 10.00 Fair CLR 62.2 12.4 14% 30.19 0.0
02 10:15 E 8 7.00 Fair CLR 62.1 13.5 15% 30.19 0.0
02 09:55 E 3 7.00 Fair CLR 60.8 19.2 20% 30.2 0.0
02 09:35 E 3 7.00 Fair CLR 57.9 23.7 27% 30.2 0.0
02 09:15 Calm 5.00 Fair with Haze CLR 54 23.7 31% 30.21 0.0
02 08:55 Calm 5.00 Fair with Haze CLR 51.6 23.7 34% 30.21 0.0
02 08:35 Calm 5.00 Fair with Haze CLR 49.5 23.7 36% 30.21 0.0
02 08:15 Calm 4.00 Fair with Haze CLR 46.4 23.4 40% 30.22 0.0
02 07:55 S 3 5.00 Fair with Haze CLR 45 24.1 44% 30.22 0.0
02 07:35 Calm 4.00 Fair with Haze CLR 42.1 24.3 49% 30.22 0.0
02 07:15 Calm 5.00 Fair with Haze CLR 37.9 24.3 58% 30.22 0.0
02 06:55 Calm 5.00 Fair with Haze CLR 34.2 22.6 63% 30.22 0.0
02 06:35 Calm 5.00 Fair with Haze CLR 32.7 22.1 65% 30.22 0.0
02 06:15 Calm 4.00 Fair with Haze CLR 32.2 22.6 68% 30.21 0.0
02 05:55 Calm 7.00 Fair CLR 30.2 20.5 44.6 30.2 67% 30.21 0.0
02 05:35 Calm 7.00 Fair CLR 33.3 22.1 64% 30.21 0.0
02 05:15 Calm 7.00 Fair CLR 32.9 22.1 64% 30.21 0.0
02 04:55 Calm 7.00 Fair CLR 34 21.4 60% 30.21 0.0
02 04:35 Calm 7.00 Fair CLR 37 21.9 54% 30.21 0.0
02 04:15 Calm 7.00 Fair CLR 39.9 22.1 49% 30.2 0.0
02 03:55 Calm 7.00 Fair CLR 40.1 22.8 50% 30.2 0.0
02 03:35 Calm 7.00 Fair CLR 39.4 23 52% 30.19 0.0
02 03:15 E 5 5.00 Fair with Haze CLR 39.6 21.9 49% 37 30.19 0.0
02 02:55 W 6 10.00 Fair CLR 39.9 18.9 43% 36 30.18 0.0
02 02:35 W 6 10.00 Fair CLR 42.4 18.9 39% 39 30.19 0.0
02 02:15 W 6 7.00 Fair CLR 42.3 19.2 40% 39 30.19 0.0
02 01:55 W 7 10.00 Fair CLR 43 20.3 40% 39 30.19 0.0
02 01:35 W 7 10.00 Fair CLR 41.9 20.8 43% 38 30.2 0.0
02 01:15 W 7 10.00 Fair CLR 41.9 19.9 41% 38 30.2 0.0
02 00:55 W 7 10.00 Fair CLR 41.7 19.4 41% 38 30.2 0.0
02 00:35 NW 6 10.00 Fair CLR 42.8 19.4 39% 40 30.21 0.0
02 00:15 W 7 10.00 Fair CLR 43.5 19.8 39% 40 30.21 0.0
01 23:55 W 6 10.00 Fair CLR 43.3 20.3 62.8 41.4 40% 40 30.21 0.0
01 23:35 W 5 10.00 Partly Cloudy SCT110 44.1 19.8 38% 42 30.2 0.0
01 23:15 W 3 10.00 Partly Cloudy SCT110 43.7 20.8 40% 30.2 0.0
01 22:55 W 3 10.00 Partly Cloudy SCT100 42.3 21.2 43% 30.2 0.0
01 22:35 Calm 10.00 Partly Cloudy SCT100 45.1 20.5 37% 30.2 0.0
01 22:15 W 3 7.00 Partly Cloudy SCT110 47.3 21.2 36% 30.19 0.0
01 21:55 Calm 7.00 Mostly Cloudy BKN110 49.8 22.1 34% 30.18 0.0
01 21:35 Calm 7.00 Mostly Cloudy BKN110 49.5 23 35% 30.18 0.0
01 21:15 N 5 7.00 Mostly Cloudy BKN120 48.9 23.5 37% 48 30.17 0.0
01 20:55 Calm 7.00 Mostly Cloudy BKN120 49.1 22.8 36% 30.16 0.0
01 20:35 NW 3 7.00 Mostly Cloudy BKN120 52.2 21.9 31% 30.15 0.0
01 20:15 N 3 7.00 Partly Cloudy SCT120 55.4 17.8 23% 30.13 0.0
01 19:55 Calm 7.00 Partly Cloudy SCT120 57.6 15.3 19% 30.13 0.0
01 19:15 N 3 7.00 Fair CLR 58.8 13.5 17% 30.11 0.0
01 18:55 NE 5 7.00 Fair CLR 59.9 13.3 16% 30.11 0.0
01 18:35 NE 7 5.00 Fair with Haze CLR 61 12.9 15% 30.11 0.0
01 18:15 NE 3 7.00 Partly Cloudy SCT110 61.9 13.6 15% 30.1 0.0
01 17:55 NE 6 G 20 7.00 Mostly Cloudy BKN110 63.7 13.3 64.4 56.3 14% 30.1 0.0
01 17:35 NW 7 10.00 Fair CLR 64.4 11.8 13% 30.09 0.0
01 17:15 NW 3 7.00 Partly Cloudy SCT120 63.5 12.2 13% 30.09 0.0
01 16:55 Calm 10.00 Fair CLR 63.5 11.5 13% 30.09 0.0
01 16:35 Calm 7.00 Fair CLR 62.6 11.5 13% 30.1 0.0
01 16:15 N 8 G 16 5.00 Fair with Haze CLR 63.5 12.9 14% 30.1 0.0
01 15:55 NE 3 7.00 Fair CLR 63.3 12.7 14% 30.11 0.0
01 15:35 SE 6 7.00 Fair CLR 62.1 12.2 14% 30.11 0.0
01 15:15 NE 9 7.00 Fair CLR 61.5 12.6 14% 30.12 0.0
01 14:55 NE 3 10.00 Fair CLR 61.7 12.9 15% 30.12 0.0
01 14:35 NE 13 G 20 10.00 Fair CLR 61.9 14.2 15% 30.13 0.0
01 14:15 NW 3 7.00 Fair CLR 60.1 15.1 17% 30.13 0.0
01 13:55 NE 9 G 17 7.00 Fair CLR 60.3 15.3 17% 30.14 0.0
01 13:35 N 3 5.00 Fair with Haze CLR 60.1 15.6 17% 30.14 0.0
01 13:15 N 3 7.00 Fair CLR 59.2 16.3 19% 30.15 0.0
01 12:55 N 7 7.00 Fair CLR 59 18.7 21% 30.15 0.0
01 12:35 S 5 10.00 Fair CLR 57.6 18.1 21% 30.15 0.0
01 12:15 NE 5 5.00 Fair with Haze CLR 57 18.9 22% 30.15 0.0
01 11:55 N 5 7.00 Fair CLR 57.4 19.9 57.4 28.6 23% 30.16 0.0
01 11:35 E 6 7.00 Fair CLR 55.9 18.7 23% 30.17 0.0
01 11:15 SE 5 5.00 Fair with Haze CLR 55.6 19.4 24% 30.17 0.0
01 10:55 Calm 5.00 Fair with Haze CLR 55.6 18.7 24% 30.17 0.0
01 10:35 NE 7 5.00 Fair with Haze CLR 54.7 19.9 26% 30.18 0.0
01 10:15 NW 3 5.00 Fair with Haze CLR 53.6 18.9 25% 30.17 0.0
01 09:55 Calm 7.00 Fair CLR 52.7 18.5 26% 30.17 0.0
01 09:35 N 3 5.00 Fair with Haze CLR 52.2 23.7 33% 30.17 0.0
01 09:15 Calm 5.00 Fair with Haze CLR 50.2 23 34% 30.18 0.0
01 08:55 Calm 5.00 Fair with Haze CLR 49.1 25.5 40% 30.18 0.0
01 08:35 Calm 5.00 Fair with Haze CLR 47.3 25.9 43% 30.18 0.0
01 08:15 Calm 5.00 Fair with Haze CLR 44.6 25.9 48% 30.18 0.0
01 07:55 Calm 4.00 Fair with Haze CLR 42.4 26.4 53% 30.18 0.0
01 07:35 SW 3 5.00 Fair with Haze CLR 39.6 28.9 66% 30.18 0.0
01 07:15 SW 3 4.00 Fair with Haze CLR 35.1 28.2 76% 30.18 0.0
01 06:55 SW 3 5.00 Fair with Haze CLR 32 25.5 77% 30.18 0.0
01 06:35 Calm 5.00 Fair with Haze CLR 30.4 24.8 80% 30.17 0.0
01 06:15 Calm 7.00 Fair CLR 28.6 23 80% 30.17 0.0
01 05:55 Calm 7.00 Fair CLR 28.6 23.9 34.5 28.4 83% 30.17 0.0
01 05:35 W 3 7.00 Fair CLR 29.3 24.4 82% 30.17 0.0
01 05:15 Calm 7.00 Fair CLR 28.6 23.2 80% 30.17 0.0
01 04:55 Calm 7.00 Fair CLR 30.7 23.2 74% 30.17 0.0
01 04:35 SW 3 7.00 Fair CLR 30 24.8 81% 30.17 0.0
01 04:15 SW 3 7.00 Fair CLR 29.1 25.5 86% 30.17 0.0
01 03:55 W 3 7.00 Fair CLR 29.8 24.1 79% 30.17 0.0
01 03:35 W 3 7.00 Fair CLR 31.1 26.1 82% 30.17 0.0
01 03:15 Calm 10.00 Fair CLR 31.5 25 77% 30.17 0.0
01 02:55 W 3 7.00 Fair CLR 31.3 25.9 80% 30.17 0.0
01 02:35 W 5 7.00 Fair CLR 31.1 25.7 80% 27 30.17 0.0
01 02:15 SW 3 7.00 Fair CLR 31.5 26.4 82% 30.18 0.0
01 01:55 Calm 10.00 Fair CLR 32.9 26.4 77% 30.18 0.0
01 01:35 Calm 10.00 Fair CLR 32.9 26.6 78% 30.19 0.0
01 01:15 W 3 7.00 Fair CLR 34.2 27.5 77% 30.19 0.0
01 00:55 Calm 7.00 Fair CLR 33.6 27.5 78% 30.19 0.0
01 00:35 Calm 7.00 Fair CLR 34 29.3 83% 30.2 0.0
01 00:15 W 6 7.00 Fair CLR 34.2 28 78% 30 30.2 0.0
30 23:55 Calm 10.00 Fair CLR 35.4 29.5 47.7 35.4 79% 30.2 0.0
30 23:35 SW 3 10.00 Fair CLR 36.9 30 76% 30.2 0.0
30 23:15 SW 3 7.00 Fair CLR 37.4 29.5 73% 30.2 0.0
30 22:35 W 3 10.00 Fair CLR 38.5 29.3 70% 30.2 0.0
30 22:15 Calm 7.00 Fair CLR 37.9 29.1 71% 30.19 0.0
30 21:55 W 3 10.00 Fair CLR 38.1 29.3 71% 30.19 0.0
30 21:35 Calm 10.00 Fair CLR 37 29.1 73% 30.19 0.0
30 21:15 Calm 10.00 Fair CLR 40.3 30.2 67% 30.18 0.0
30 20:55 W 5 7.00 Fair CLR 39.6 30.2 69% 37 30.17 0.0
30 20:35 W 5 7.00 Fair CLR 43.2 30.7 62% 41 30.17 0.0
30 20:15 Calm 10.00 Partly Cloudy SCT080 43.9 31.1 61% 30.17 0.0
30 19:55 W 3 10.00 Overcast OVC080 45.9 30.2 54% 30.16 0.0
Date Time (mdt) Wind (mph) Vis. (mi.) Weather Sky Cond. Air Dwpt Max. Min. Relative Humidity Wind Chill (°F) Heat Index (°F) altimeter (in) sea level (mb) 1 hr 3 hr 6 hr
6 hour
Temperature (ºF) Pressure Precipitation (in)